Time;durP1;ratioP1;P1;durP2;ratioP2;P2;SDS_P1;SDS_P2;PMS_P1;PMS_P2;Temp;Humidity;BMP_temperature;BMP_pressure;BME280_temperature;BME280_humidity;BME280_pressure;Samples;Min_cycle;Max_cycle;Signal;HPM_P1;HPM_P2
2021/08/01 00:00:47;;;;;;;4.50;3.70;;;18.00;1.00;;;;;;5077245;28;20191;-84
2021/08/01 00:03:13;;;;;;;5.47;3.43;;;18.00;1.00;;;;;;5076487;28;20190;-84
2021/08/01 00:05:38;;;;;;;5.27;3.33;;;17.90;1.00;;;;;;5074524;28;20189;-84
2021/08/01 00:08:04;;;;;;;4.37;3.80;;;17.90;1.00;;;;;;5078803;28;20195;-84
2021/08/01 00:10:30;;;;;;;5.23;3.43;;;17.80;1.00;;;;;;5076802;28;20546;-84
2021/08/01 00:12:56;;;;;;;6.90;3.70;;;17.70;1.00;;;;;;5080307;28;20196;-86
2021/08/01 00:15:22;;;;;;;3.63;3.27;;;;;;;;;;5080620;28;20219;-83
2021/08/01 00:17:49;;;;;;;2.90;2.50;;;;;;;;;;5082037;28;20207;-83
2021/08/01 00:20:15;;;;;;;3.03;2.73;;;17.80;1.00;;;;;;5073627;28;20193;-83
2021/08/01 00:22:41;;;;;;;3.07;2.53;;;17.80;1.00;;;;;;5083599;28;20290;-84
2021/08/01 00:25:07;;;;;;;3.33;2.90;;;17.90;1.00;;;;;;5080835;28;20196;-84
2021/08/01 00:27:35;;;;;;;3.40;3.07;;;17.90;1.00;;;;;;5079466;28;20222;-84
2021/08/01 00:30:03;;;;;;;3.83;2.93;;;17.90;1.00;;;;;;5099292;28;20184;-84
2021/08/01 00:32:29;;;;;;;6.57;3.17;;;17.90;1.00;;;;;;5082662;28;20189;-85
2021/08/01 00:34:55;;;;;;;3.43;2.93;;;;;;;;;;5101100;28;20257;-84
2021/08/01 00:37:21;;;;;;;4.27;2.93;;;17.80;1.00;;;;;;5098679;28;20213;-84
2021/08/01 00:39:46;;;;;;;3.20;3.00;;;17.90;1.00;;;;;;5082793;28;20183;-84
2021/08/01 00:42:12;;;;;;;4.20;3.03;;;18.00;1.00;;;;;;5079699;28;20195;-83
2021/08/01 00:44:37;;;;;;;3.63;2.63;;;17.90;1.00;;;;;;5096099;28;20206;-84
2021/08/01 00:47:04;;;;;;;3.33;2.60;;;17.80;1.00;;;;;;5080233;28;20198;-83
2021/08/01 00:49:30;;;;;;;4.37;2.90;;;17.80;1.00;;;;;;5098121;28;20196;-84
2021/08/01 00:51:55;;;;;;;3.33;2.90;;;17.70;1.00;;;;;;5082007;28;20191;-82
2021/08/01 00:54:25;;;;;;;5.20;2.57;;;17.70;1.00;;;;;;5082910;28;20196;-83
2021/08/01 00:56:50;;;;;;;3.27;2.57;;;17.70;1.00;;;;;;5102150;28;20212;-84
2021/08/01 00:59:16;;;;;;;3.50;2.57;;;17.50;1.00;;;;;;5083200;28;20194;-84
2021/08/01 01:01:57;;;;;;;6.90;2.90;;;17.60;1.00;;;;;;5082302;28;20195;-84
2021/08/01 01:04:27;;;;;;;3.63;2.83;;;17.60;1.00;;;;;;5081698;28;20211;-83
2021/08/01 01:07:07;;;;;;;2.80;2.60;;;17.70;1.00;;;;;;5080251;28;20192;-83
2021/08/01 01:09:44;;;;;;;3.80;2.53;;;17.60;1.00;;;;;;5076763;28;20601;-84
2021/08/01 01:12:14;;;;;;;2.90;2.60;;;17.60;1.00;;;;;;5079454;28;20207;-84
2021/08/01 01:14:48;;;;;;;2.43;2.23;;;17.60;1.00;;;;;;5081499;28;20207;-84
2021/08/01 01:17:19;;;;;;;4.30;2.80;;;17.50;1.00;;;;;;5081541;28;20888;-83
2021/08/01 01:20:12;;;;;;;2.70;2.37;;;17.50;1.00;;;;;;5082777;28;20213;-83
2021/08/01 01:22:44;;;;;;;3.17;2.67;;;17.50;1.00;;;;;;5081762;28;20197;-83
2021/08/01 01:25:29;;;;;;;3.20;2.20;;;17.50;1.00;;;;;;5080073;28;20196;-84
2021/08/01 01:28:09;;;;;;;5.87;2.97;;;17.60;1.00;;;;;;5071306;28;20196;-84
2021/08/01 01:30:38;;;;;;;3.70;3.07;;;17.50;1.00;;;;;;5074938;28;20468;-84
2021/08/01 01:33:09;;;;;;;3.67;2.60;;;17.50;1.00;;;;;;5078898;28;20559;-85
2021/08/01 01:35:40;;;;;;;2.93;2.67;;;17.40;1.00;;;;;;5081457;28;20207;-84
2021/08/01 01:38:07;;;;;;;3.93;2.90;;;17.40;1.00;;;;;;5095798;28;20221;-85
2021/08/01 01:40:36;;;;;;;3.30;2.73;;;17.40;1.00;;;;;;5078482;28;20261;-84
2021/08/01 01:43:02;;;;;;;3.00;2.70;;;17.40;1.00;;;;;;5075758;28;20197;-84
2021/08/01 01:45:29;;;;;;;4.83;2.33;;;17.40;1.00;;;;;;5077390;28;20202;-85
2021/08/01 01:47:56;;;;;;;4.93;3.40;;;17.30;1.00;;;;;;5074041;28;20211;-84
2021/08/01 01:50:23;;;;;;;2.80;2.60;;;17.30;1.00;;;;;;5077757;28;20181;-84
2021/08/01 01:52:50;;;;;;;6.87;2.60;;;17.40;1.00;;;;;;5080860;28;20225;-83
2021/08/01 01:55:20;;;;;;;3.33;2.97;;;17.50;1.00;;;;;;5094619;28;20191;-84
2021/08/01 01:57:46;;;;;;;2.80;2.50;;;17.40;1.00;;;;;;5080471;28;20309;-84
2021/08/01 02:00:12;;;;;;;4.43;3.10;;;17.40;1.00;;;;;;5071201;28;20191;-84
2021/08/01 02:02:38;;;;;;;2.93;2.33;;;17.40;1.00;;;;;;5077322;28;20546;-84
2021/08/01 02:05:04;;;;;;;3.40;2.77;;;17.30;1.00;;;;;;5076838;28;20215;-83
2021/08/01 02:07:31;;;;;;;3.23;2.67;;;17.30;1.00;;;;;;5081916;28;20202;-83
2021/08/01 02:10:08;;;;;;;2.97;2.53;;;17.30;1.00;;;;;;5071367;28;20560;-84
2021/08/01 02:12:41;;;;;;;2.73;2.53;;;17.20;1.00;;;;;;5074249;28;20190;-84
2021/08/01 02:15:46;;;;;;;2.87;2.63;;;17.30;1.00;;;;;;5078962;28;20212;-84
2021/08/01 02:19:00;;;;;;;3.70;2.87;;;17.30;1.00;;;;;;5071425;28;20294;-85
2021/08/01 02:21:26;;;;;;;3.00;2.70;;;17.30;1.00;;;;;;5077100;28;20207;-85
2021/08/01 02:23:53;;;;;;;4.27;2.87;;;17.20;1.00;;;;;;5098161;28;20247;-84
2021/08/01 02:26:22;;;;;;;3.30;2.50;;;17.20;1.00;;;;;;5101060;28;20198;-85
2021/08/01 02:28:49;;;;;;;3.00;2.70;;;17.20;1.00;;;;;;5101598;28;20181;-85
2021/08/01 02:31:15;;;;;;;3.47;2.90;;;17.20;1.00;;;;;;5084252;28;20199;-83
2021/08/01 02:33:41;;;;;;;3.87;2.70;;;17.20;1.00;;;;;;5077513;28;20223;-84
2021/08/01 02:36:09;;;;;;;3.03;2.70;;;17.10;1.00;;;;;;5084285;28;20184;-85
2021/08/01 02:38:35;;;;;;;3.10;2.80;;;17.20;1.00;;;;;;5081931;28;20648;-83
2021/08/01 02:41:05;;;;;;;4.03;2.80;;;17.20;1.00;;;;;;5085658;28;20529;-85
2021/08/01 02:43:32;;;;;;;3.10;2.80;;;17.30;1.00;;;;;;5083528;28;20191;-83
2021/08/01 02:45:59;;;;;;;3.80;3.03;;;17.20;1.00;;;;;;5075959;28;20188;-84
2021/08/01 02:48:26;;;;;;;4.97;2.73;;;17.20;1.00;;;;;;5083958;28;20334;-83
2021/08/01 02:51:01;;;;;;;4.00;2.70;;;17.20;1.00;;;;;;5081969;28;20184;-85
2021/08/01 02:53:28;;;;;;;4.63;2.80;;;17.20;1.00;;;;;;5084998;28;20176;-84
2021/08/01 02:55:57;;;;;;;5.10;2.97;;;17.30;1.00;;;;;;5085168;28;20246;-85
2021/08/01 02:58:27;;;;;;;3.83;3.07;;;17.30;1.00;;;;;;5079821;28;20200;-85
2021/08/01 03:00:54;;;;;;;4.47;3.33;;;17.30;1.00;;;;;;5094220;28;20248;-84
2021/08/01 03:03:21;;;;;;;6.43;2.53;;;17.30;1.00;;;;;;5070813;28;20183;-85
2021/08/01 03:05:47;;;;;;;3.70;3.20;;;17.30;1.00;;;;;;5082024;28;20565;-84
2021/08/01 03:08:13;;;;;;;4.13;3.17;;;17.30;1.00;;;;;;5099669;28;20179;-84
2021/08/01 03:10:48;;;;;;;4.13;3.47;;;17.30;1.00;;;;;;5083884;28;20268;-85
2021/08/01 03:13:14;;;;;;;4.27;3.53;;;;;;;;;;5083647;28;20663;-84
2021/08/01 03:15:42;;;;;;;4.80;3.00;;;17.20;1.00;;;;;;5075980;28;20206;-84
2021/08/01 03:18:09;;;;;;;3.70;3.27;;;17.20;1.00;;;;;;5078568;28;20243;-84
2021/08/01 03:20:34;;;;;;;3.40;3.10;;;17.20;1.00;;;;;;5086141;28;20233;-84
2021/08/01 03:23:00;;;;;;;4.07;3.30;;;17.20;1.00;;;;;;5078517;28;20640;-84
2021/08/01 03:25:26;;;;;;;3.30;2.80;;;17.20;1.00;;;;;;5084994;28;20194;-83
2021/08/01 03:27:51;;;;;;;3.77;3.00;;;17.10;1.00;;;;;;5083287;28;20199;-84
2021/08/01 03:30:17;;;;;;;3.43;2.90;;;17.20;1.00;;;;;;5079169;28;20188;-84
2021/08/01 03:32:42;;;;;;;3.33;2.60;;;17.30;1.00;;;;;;5083102;28;20244;-84
2021/08/01 03:35:08;;;;;;;6.13;2.80;;;17.20;1.00;;;;;;5087328;28;20204;-83
2021/08/01 03:37:34;;;;;;;3.27;2.70;;;17.30;1.00;;;;;;5101272;28;20266;-84
2021/08/01 03:40:00;;;;;;;3.03;2.63;;;17.30;1.00;;;;;;5079385;28;20173;-86
2021/08/01 03:42:25;;;;;;;3.83;2.93;;;17.30;1.00;;;;;;5078719;28;20200;-84
2021/08/01 03:44:51;;;;;;;3.63;3.17;;;17.40;1.00;;;;;;5080859;28;20188;-84
2021/08/01 03:47:17;;;;;;;4.30;2.67;;;17.20;1.00;;;;;;5079597;28;20192;-83
2021/08/01 03:49:43;;;;;;;3.73;2.83;;;17.30;1.00;;;;;;5082021;28;20198;-83
2021/08/01 03:52:10;;;;;;;4.70;2.80;;;17.30;1.00;;;;;;5074651;28;20195;-84
2021/08/01 03:54:35;;;;;;;5.83;3.37;;;17.30;1.00;;;;;;5083796;28;20275;-84
2021/08/01 03:57:01;;;;;;;4.07;3.57;;;17.30;1.00;;;;;;5078962;28;20586;-84
2021/08/01 03:59:32;;;;;;;4.20;3.77;;;17.30;1.00;;;;;;5075017;28;20186;-84
2021/08/01 04:01:58;;;;;;;5.20;4.10;;;17.30;1.00;;;;;;5076737;28;20210;-84
2021/08/01 04:04:24;;;;;;;5.13;3.73;;;17.30;1.00;;;;;;5079217;28;20211;-84
2021/08/01 04:06:49;;;;;;;5.20;3.50;;;17.30;1.00;;;;;;5082094;28;20183;-84
2021/08/01 04:09:15;;;;;;;4.87;4.20;;;17.30;1.00;;;;;;5100375;28;20228;-84
2021/08/01 04:11:44;;;;;;;3.73;3.33;;;;;;;;;;5077851;28;20198;-84
2021/08/01 04:14:10;;;;;;;4.30;3.90;;;17.10;1.00;;;;;;5097750;28;20205;-83
2021/08/01 04:16:36;;;;;;;4.43;3.93;;;17.10;1.00;;;;;;5097573;28;20210;-83
2021/08/01 04:19:10;;;;;;;3.90;3.60;;;17.00;1.00;;;;;;5081975;28;20672;-84
2021/08/01 04:21:37;;;;;;;4.13;3.30;;;17.00;1.00;;;;;;5084417;28;20188;-84
2021/08/01 04:24:03;;;;;;;3.43;3.10;;;16.90;1.00;;;;;;5079021;28;20183;-84
2021/08/01 04:26:29;;;;;;;6.00;3.03;;;17.00;1.00;;;;;;5102884;28;20184;-83
2021/08/01 04:28:55;;;;;;;4.60;4.10;;;17.00;1.00;;;;;;5081789;28;20250;-83
2021/08/01 04:31:20;;;;;;;3.97;3.47;;;17.00;1.00;;;;;;5084386;28;20180;-84
2021/08/01 04:33:46;;;;;;;4.40;3.30;;;16.90;1.00;;;;;;5081643;28;20185;-83
2021/08/01 04:36:11;;;;;;;4.27;3.60;;;16.90;1.00;;;;;;5082772;28;20241;-84
2021/08/01 04:38:37;;;;;;;6.57;3.53;;;16.90;1.00;;;;;;5078626;28;20312;-84
2021/08/01 04:41:03;;;;;;;6.43;3.80;;;16.90;1.00;;;;;;5082859;28;20199;-83
2021/08/01 04:43:28;;;;;;;3.57;3.27;;;16.90;1.00;;;;;;5098565;28;20670;-84
2021/08/01 04:45:54;;;;;;;3.83;3.30;;;16.90;1.00;;;;;;5081319;28;20203;-84
2021/08/01 04:48:19;;;;;;;6.73;5.87;;;17.00;1.00;;;;;;5097880;28;20216;-84
2021/08/01 04:50:45;;;;;;;4.53;2.83;;;17.10;1.00;;;;;;5080006;28;20198;-83
2021/08/01 04:53:11;;;;;;;3.80;3.07;;;17.00;1.00;;;;;;5079795;28;20213;-84
2021/08/01 04:55:37;;;;;;;3.77;3.00;;;17.10;1.00;;;;;;5084519;28;20176;-84
2021/08/01 04:58:03;;;;;;;4.10;3.23;;;17.10;1.00;;;;;;5080925;28;20219;-84
2021/08/01 05:00:29;;;;;;;3.60;2.67;;;17.20;1.00;;;;;;5098700;28;20199;-83
2021/08/01 05:02:58;;;;;;;3.63;2.77;;;17.20;1.00;;;;;;5081515;28;20309;-84
2021/08/01 05:05:24;;;;;;;3.50;3.20;;;17.30;1.00;;;;;;5085968;28;20225;-84
2021/08/01 05:07:50;;;;;;;3.17;2.87;;;17.30;1.00;;;;;;5082486;28;20251;-83
2021/08/01 05:10:15;;;;;;;3.77;2.90;;;17.40;1.00;;;;;;5078168;28;20283;-84
2021/08/01 05:12:41;;;;;;;3.30;3.00;;;17.30;1.00;;;;;;5077368;28;20640;-84
2021/08/01 05:15:07;;;;;;;3.20;2.90;;;17.40;1.00;;;;;;5079720;28;20735;-83
2021/08/01 05:17:33;;;;;;;4.00;3.03;;;17.50;1.00;;;;;;5081067;28;20564;-82
2021/08/01 05:19:58;;;;;;;3.87;2.93;;;17.60;1.00;;;;;;5081467;28;20199;-82
2021/08/01 05:22:24;;;;;;;4.07;2.80;;;17.70;1.00;;;;;;5078979;28;20188;-83
2021/08/01 05:24:50;;;;;;;3.93;2.77;;;17.80;1.00;;;;;;5081905;28;20218;-83
2021/08/01 05:27:15;;;;;;;2.87;2.53;;;17.90;1.00;;;;;;5101116;28;20193;-82
2021/08/01 05:29:41;;;;;;;2.93;2.23;;;18.00;1.00;;;;;;5078150;28;20569;-82
2021/08/01 05:32:07;;;;;;;3.17;2.70;;;18.10;1.00;;;;;;5078063;28;20180;-84
2021/08/01 05:34:32;;;;;;;3.67;2.90;;;18.10;1.00;;;;;;5082604;28;20189;-82
2021/08/01 05:36:59;;;;;;;3.97;2.83;;;18.10;1.00;;;;;;5080444;28;20299;-86
2021/08/01 05:39:36;;;;;;;3.13;2.60;;;18.20;1.00;;;;;;5081169;28;20191;-88
2021/08/01 05:42:03;;;;;;;3.33;2.37;;;18.30;1.00;;;;;;5078839;28;20206;-86
2021/08/01 05:44:29;;;;;;;3.10;2.80;;;18.40;1.00;;;;;;5080088;28;20192;-88
2021/08/01 05:46:54;;;;;;;3.00;2.10;;;18.50;1.00;;;;;;5077526;28;20186;-88
2021/08/01 05:49:20;;;;;;;2.83;2.43;;;18.50;1.00;;;;;;5076417;28;20201;-86
2021/08/01 05:51:46;;;;;;;2.30;2.00;;;18.60;1.00;;;;;;5080763;28;22432;-88
2021/08/01 05:54:12;;;;;;;5.37;1.93;;;18.70;1.00;;;;;;5085588;28;20185;-87
2021/08/01 05:56:41;;;;;;;2.17;2.00;;;18.60;1.00;;;;;;5098208;28;20228;-87
2021/08/01 05:59:07;;;;;;;3.23;2.13;;;18.60;1.00;;;;;;5081307;28;20269;-89
2021/08/01 06:01:33;;;;;;;2.20;1.90;;;18.70;1.00;;;;;;5106094;28;20231;-87
2021/08/01 06:03:59;;;;;;;3.63;2.57;;;18.80;1.00;;;;;;5083028;28;20227;-87
2021/08/01 06:06:24;;;;;;;2.17;1.97;;;18.90;1.00;;;;;;5085899;28;20215;-87
2021/08/01 06:08:51;;;;;;;2.17;2.00;;;19.00;1.00;;;;;;5083285;28;20200;-89
2021/08/01 06:11:18;;;;;;;5.30;2.20;;;19.00;1.00;;;;;;5083292;28;20187;-86
2021/08/01 06:13:44;;;;;;;4.50;2.10;;;18.90;1.00;;;;;;5079920;28;21156;-89
2021/08/01 06:16:11;;;;;;;2.63;2.17;;;19.10;1.00;;;;;;5082066;28;20189;-88
2021/08/01 06:18:38;;;;;;;3.17;2.50;;;19.20;1.00;;;;;;5079082;28;20210;-89
2021/08/01 06:21:13;;;;;;;2.83;1.90;;;19.30;1.00;;;;;;5082792;28;20180;-90
2021/08/01 06:23:39;;;;;;;4.93;2.63;;;19.30;1.00;;;;;;5088100;28;20161;-90
2021/08/01 06:26:05;;;;;;;2.77;2.40;;;19.30;1.00;;;;;;5061050;28;20776;-86
2021/08/01 06:28:32;;;;;;;2.43;2.23;;;19.30;1.00;;;;;;5062033;28;20183;-88
2021/08/01 06:31:03;;;;;;;2.40;2.20;;;19.40;1.00;;;;;;5061729;28;20206;-89
2021/08/01 06:33:30;;;;;;;2.63;2.30;;;19.30;1.00;;;;;;5061704;28;20657;-90
2021/08/01 06:35:56;;;;;;;2.63;2.30;;;19.40;1.00;;;;;;5061279;28;20302;-90
2021/08/01 06:38:23;;;;;;;2.90;2.60;;;19.30;1.00;;;;;;5047092;28;20712;-90
2021/08/01 06:40:51;;;;;;;4.30;2.27;;;19.40;1.00;;;;;;5062302;28;20187;-88
2021/08/01 06:43:17;;;;;;;2.67;2.47;;;19.40;1.00;;;;;;5062162;28;20175;-90
2021/08/01 06:45:43;;;;;;;2.57;2.37;;;19.40;1.00;;;;;;5044891;28;20279;-89
2021/08/01 06:48:09;;;;;;;2.87;2.20;;;19.40;1.00;;;;;;5060788;28;20608;-89
2021/08/01 06:50:36;;;;;;;2.40;2.20;;;19.50;1.00;;;;;;5058416;28;20184;-88
2021/08/01 06:53:02;;;;;;;2.83;2.57;;;19.40;1.00;;;;;;5059190;28;20180;-88
2021/08/01 06:55:28;;;;;;;3.03;2.67;;;19.40;1.00;;;;;;5059066;28;20202;-90
2021/08/01 06:57:55;;;;;;;4.40;3.03;;;19.50;1.00;;;;;;5082753;28;20217;-91
2021/08/01 07:00:22;;;;;;;2.80;2.40;;;19.50;1.00;;;;;;5081509;28;20260;-90
2021/08/01 07:02:55;;;;;;;3.13;2.47;;;19.60;1.00;;;;;;5058094;28;20189;-90
2021/08/01 07:05:22;;;;;;;3.63;3.27;;;;;;;;;;5084695;28;20674;-87
2021/08/01 07:07:49;;;;;;;3.97;2.93;;;;;;;;;;5102724;28;20654;-88
2021/08/01 07:10:15;;;;;;;2.63;2.43;;;19.80;1.00;;;;;;5083154;28;20226;-89
2021/08/01 07:12:41;;;;;;;3.00;2.40;;;;;;;;;;5093623;28;20231;-89
2021/08/01 07:15:12;;;;;;;3.67;2.60;;;19.90;1.00;;;;;;5075360;28;20245;-89
2021/08/01 07:17:39;;;;;;;2.93;2.40;;;19.90;1.00;;;;;;5080231;28;20206;-89
2021/08/01 07:20:07;;;;;;;3.80;2.40;;;19.80;1.00;;;;;;5080927;28;20690;-89
2021/08/01 07:22:33;;;;;;;3.30;2.53;;;19.70;1.00;;;;;;5083930;28;20250;-88
2021/08/01 07:24:59;;;;;;;4.37;2.70;;;19.80;1.00;;;;;;5078458;28;20345;-83
2021/08/01 07:27:24;;;;;;;2.60;2.40;;;19.80;1.00;;;;;;5080317;28;20654;-83
2021/08/01 07:29:50;;;;;;;2.70;2.10;;;19.90;1.00;;;;;;5078366;28;20334;-84
2021/08/01 07:32:16;;;;;;;2.57;2.00;;;19.90;1.00;;;;;;5097844;28;20196;-83
2021/08/01 07:34:41;;;;;;;4.83;2.10;;;20.00;1.00;;;;;;5078262;28;20197;-83
2021/08/01 07:37:07;;;;;;;3.10;1.90;;;20.10;1.00;;;;;;5077282;28;20227;-84
2021/08/01 07:39:33;;;;;;;2.20;2.00;;;20.00;1.00;;;;;;5100521;28;20202;-82
2021/08/01 07:41:58;;;;;;;3.63;2.20;;;20.50;1.00;;;;;;5079894;28;20189;-82
2021/08/01 07:44:26;;;;;;;2.73;1.90;;;20.50;1.00;;;;;;5086492;28;20187;-83
2021/08/01 07:46:52;;;;;;;3.97;2.00;;;20.40;1.00;;;;;;5080093;28;20186;-84
2021/08/01 07:49:18;;;;;;;2.87;1.73;;;20.40;1.00;;;;;;5084514;28;20194;-83
2021/08/01 07:51:43;;;;;;;2.83;2.20;;;20.30;1.00;;;;;;5083325;28;20175;-83
2021/08/01 07:54:09;;;;;;;2.07;1.83;;;20.30;1.00;;;;;;5083961;28;20207;-85
2021/08/01 07:56:35;;;;;;;4.30;1.80;;;20.40;1.00;;;;;;5085012;28;20486;-84
2021/08/01 07:59:02;;;;;;;2.10;1.67;;;;;;;;;;5085963;28;20213;-84
2021/08/01 08:01:28;;;;;;;3.37;2.30;;;;;;;;;;5086276;28;20594;-84
2021/08/01 08:03:53;;;;;;;3.13;2.10;;;20.20;1.00;;;;;;5085742;28;20208;-84
2021/08/01 08:06:19;;;;;;;3.27;2.23;;;20.20;1.00;;;;;;5082051;28;20451;-83
2021/08/01 08:08:45;;;;;;;2.70;1.90;;;;;;;;;;5083539;28;20220;-85
2021/08/01 08:11:11;;;;;;;2.77;1.80;;;;;;;;;;5080110;28;20263;-82
2021/08/01 08:13:38;;;;;;;2.50;1.77;;;;;;;;;;5082578;28;20189;-85
2021/08/01 08:16:04;;;;;;;1.67;1.53;;;;;;;;;;5083013;28;20214;-84
2021/08/01 08:18:30;;;;;;;3.27;1.80;;;;;;;;;;5078425;28;20238;-85
2021/08/01 08:21:02;;;;;;;4.10;1.80;;;;;;;;;;5075586;28;20191;-84
2021/08/01 08:23:29;;;;;;;2.40;2.00;;;;;;;;;;5077906;28;20544;-84
2021/08/01 08:25:56;;;;;;;2.83;1.93;;;;;;;;;;5083050;28;20287;-83
2021/08/01 08:28:22;;;;;;;3.37;1.70;;;;;;;;;;5081130;28;20199;-83
2021/08/01 08:30:48;;;;;;;1.73;1.63;;;;;;;;;;5079942;28;20808;-83
2021/08/01 08:33:14;;;;;;;3.23;1.40;;;;;;;;;;5078421;28;20553;-84
2021/08/01 08:35:40;;;;;;;3.83;1.83;;;;;;;;;;5084107;28;20188;-84
2021/08/01 08:38:06;;;;;;;2.60;1.30;;;21.30;1.00;;;;;;5083220;28;20281;-83
2021/08/01 08:40:39;;;;;;;1.50;1.40;;;21.40;1.00;;;;;;5101123;28;20184;-83
2021/08/01 08:43:08;;;;;;;1.63;1.53;;;21.40;1.00;;;;;;5097058;28;20208;-84
2021/08/01 08:45:34;;;;;;;2.30;1.93;;;22.00;1.00;;;;;;5082661;28;20564;-85
2021/08/01 08:48:00;;;;;;;4.27;1.83;;;22.10;1.00;;;;;;5079669;28;20189;-84
2021/08/01 08:50:27;;;;;;;3.87;1.57;;;22.10;1.00;;;;;;5096565;28;20194;-83
2021/08/01 08:53:04;;;;;;;1.77;1.40;;;22.10;1.00;;;;;;5072632;28;20660;-84
2021/08/01 08:55:36;;;;;;;3.03;1.37;;;22.20;1.00;;;;;;5079225;28;20183;-86
2021/08/01 08:58:08;;;;;;;2.70;2.13;;;21.70;1.00;;;;;;5078117;28;20208;-86
2021/08/01 09:00:34;;;;;;;4.10;2.03;;;;;;;;;;5078054;28;20185;-86
2021/08/01 09:03:00;;;;;;;2.03;1.50;;;21.40;1.00;;;;;;5079889;28;20209;-85
2021/08/01 09:05:26;;;;;;;2.73;1.50;;;21.60;1.00;;;;;;5081162;28;20212;-85
2021/08/01 09:07:55;;;;;;;3.10;2.00;;;21.90;1.00;;;;;;5079624;28;20613;-85
2021/08/01 09:10:21;;;;;;;1.43;1.17;;;21.90;1.00;;;;;;5080347;28;20193;-85
2021/08/01 09:12:50;;;;;;;1.27;1.17;;;22.30;1.00;;;;;;5079103;28;20186;-84
2021/08/01 09:15:24;;;;;;;1.73;1.10;;;22.10;1.00;;;;;;5076179;28;20196;-84
2021/08/01 09:17:53;;;;;;;1.00;1.00;;;22.00;1.00;;;;;;5077893;28;20255;-86
2021/08/01 09:20:32;;;;;;;2.20;1.47;;;22.00;1.00;;;;;;5080883;28;20185;-87
2021/08/01 09:23:00;;;;;;;2.47;1.40;;;22.10;1.00;;;;;;5079277;28;20190;-86
2021/08/01 09:25:39;;;;;;;2.17;1.30;;;22.10;1.00;;;;;;5080721;28;20267;-85
2021/08/01 09:28:07;;;;;;;2.30;1.43;;;23.10;1.00;;;;;;5101287;28;20193;-84
2021/08/01 09:30:56;;;;;;;1.43;1.33;;;23.10;1.00;;;;;;5071807;28;20333;-85
2021/08/01 09:33:43;;;;;;;3.80;1.37;;;23.30;1.00;;;;;;5083928;28;20192;-85
2021/08/01 09:36:20;;;;;;;0.87;0.87;;;23.30;1.00;;;;;;5074530;28;20190;-85
2021/08/01 09:39:00;;;;;;;1.27;1.00;;;23.40;1.00;;;;;;5077638;28;20242;-85
2021/08/01 09:41:33;;;;;;;0.80;0.80;;;23.40;1.00;;;;;;5077048;28;20187;-85
2021/08/01 09:44:01;;;;;;;3.27;1.27;;;23.80;1.00;;;;;;5078569;28;20250;-85
2021/08/01 09:46:40;;;;;;;0.80;0.80;;;23.80;1.00;;;;;;5072946;28;20218;-85
2021/08/01 09:49:10;;;;;;;1.90;1.03;;;24.50;1.00;;;;;;5076668;28;20203;-85
2021/08/01 09:51:44;;;;;;;2.57;1.30;;;24.50;1.00;;;;;;5075005;28;20231;-85
2021/08/01 09:54:10;;;;;;;1.00;0.87;;;24.70;1.00;;;;;;5073800;28;20225;-86
2021/08/01 09:56:37;;;;;;;1.00;0.90;;;24.20;1.00;;;;;;5076908;28;20268;-85
2021/08/01 09:59:03;;;;;;;1.20;1.10;;;23.90;1.00;;;;;;5077004;28;20216;-86
2021/08/01 10:01:30;;;;;;;0.73;0.73;;;23.60;1.00;;;;;;5079513;28;20205;-84
2021/08/01 10:03:57;;;;;;;0.80;0.80;;;23.20;1.00;;;;;;5075869;28;20220;-85
2021/08/01 10:06:24;;;;;;;2.00;1.13;;;23.20;1.00;;;;;;5079250;28;20188;-83
2021/08/01 10:08:53;;;;;;;0.97;0.90;;;22.90;1.00;;;;;;5095497;28;20190;-83
2021/08/01 10:11:24;;;;;;;1.70;1.40;;;22.80;1.00;;;;;;5069540;28;20186;-84
2021/08/01 10:13:55;;;;;;;2.60;1.23;;;22.80;1.00;;;;;;5098087;28;20287;-83
2021/08/01 10:16:21;;;;;;;1.60;1.07;;;23.30;1.00;;;;;;5071633;28;20765;-84
2021/08/01 10:18:49;;;;;;;1.30;1.10;;;23.60;1.00;;;;;;5081163;28;20213;-85
2021/08/01 10:21:19;;;;;;;1.27;1.10;;;23.80;1.00;;;;;;5081116;28;20187;-83
2021/08/01 10:23:47;;;;;;;1.20;1.10;;;24.10;1.00;;;;;;5094671;28;20183;-85
2021/08/01 10:26:14;;;;;;;1.47;1.20;;;24.10;1.00;;;;;;5078506;28;20196;-84
2021/08/01 10:28:42;;;;;;;2.03;1.17;;;24.00;1.00;;;;;;5077263;28;20212;-83
2021/08/01 10:31:11;;;;;;;1.57;1.00;;;24.20;1.00;;;;;;5079451;28;20559;-84
2021/08/01 10:34:08;;;;;;;2.87;1.37;;;23.70;1.00;;;;;;5077582;28;20212;-82
2021/08/01 10:36:35;;;;;;;1.90;1.30;;;23.50;1.00;;;;;;5080011;28;20784;-83
2021/08/01 10:39:05;;;;;;;2.53;1.23;;;23.40;1.00;;;;;;5082156;28;20648;-83
2021/08/01 10:41:33;;;;;;;1.63;1.33;;;23.50;1.00;;;;;;5101580;28;20218;-84
2021/08/01 10:44:06;;;;;;;1.47;1.17;;;23.70;1.00;;;;;;5084076;28;20282;-86
2021/08/01 10:46:34;;;;;;;2.23;1.63;;;24.00;1.00;;;;;;5078588;28;20190;-86
2021/08/01 10:49:02;;;;;;;1.57;1.10;;;24.10;1.00;;;;;;5080185;28;20746;-85
2021/08/01 10:51:30;;;;;;;1.30;1.20;;;24.40;1.00;;;;;;5097720;28;20533;-85
2021/08/01 10:54:21;;;;;;;1.37;1.20;;;24.30;1.00;;;;;;5073065;28;20877;-85
2021/08/01 10:57:15;;;;;;;2.03;1.20;;;24.10;1.00;;;;;;5083271;28;20435;-85
2021/08/01 10:59:44;;;;;;;1.30;1.20;;;23.90;1.00;;;;;;5082389;28;20184;-85
2021/08/01 11:02:19;;;;;;;1.50;1.20;;;23.90;1.00;;;;;;5079366;28;20275;-84
2021/08/01 11:04:47;;;;;;;1.20;1.10;;;24.00;1.00;;;;;;5083060;28;20223;-85
2021/08/01 11:07:25;;;;;;;1.07;1.00;;;24.20;1.00;;;;;;5075777;28;20220;-85
2021/08/01 11:10:16;;;;;;;1.60;1.37;;;24.40;1.00;;;;;;5075813;28;20193;-86
2021/08/01 11:12:42;;;;;;;1.13;1.03;;;24.40;1.00;;;;;;5074256;28;20187;-85
2021/08/01 11:15:13;;;;;;;1.50;1.23;;;24.20;1.00;;;;;;5099463;28;20216;-85
2021/08/01 11:17:42;;;;;;;1.50;1.17;;;24.40;1.00;;;;;;5082621;28;20210;-84
2021/08/01 11:20:18;;;;;;;1.20;1.10;;;24.50;1.00;;;;;;5085228;28;20184;-83
2021/08/01 11:22:44;;;;;;;1.43;1.20;;;24.20;1.00;;;;;;5101018;28;20182;-85
2021/08/01 11:25:26;;;;;;;1.97;1.30;;;24.20;1.00;;;;;;5077852;28;20266;-86
2021/08/01 11:28:10;;;;;;;1.33;1.23;;;24.20;1.00;;;;;;5097199;28;20256;-85
2021/08/01 11:30:51;;;;;;;3.03;1.40;;;24.20;1.00;;;;;;5083581;28;20215;-83
2021/08/01 11:33:38;;;;;;;1.20;1.10;;;24.30;1.00;;;;;;5075700;28;20192;-84
2021/08/01 11:36:12;;;;;;;1.33;1.03;;;24.20;1.00;;;;;;5080810;28;20204;-85
2021/08/01 11:38:40;;;;;;;2.67;1.50;;;24.40;1.00;;;;;;5076558;28;20231;-83
2021/08/01 11:41:06;;;;;;;2.10;1.43;;;24.30;1.00;;;;;;5070654;28;20227;-84
2021/08/01 11:43:32;;;;;;;1.50;1.20;;;24.50;1.00;;;;;;5075322;28;20192;-84
2021/08/01 11:46:00;;;;;;;1.40;1.30;;;24.30;1.00;;;;;;5080055;28;20596;-84
2021/08/01 11:48:27;;;;;;;1.50;1.40;;;24.20;1.00;;;;;;5078705;28;20196;-84
2021/08/01 11:50:55;;;;;;;1.77;1.40;;;24.00;1.00;;;;;;5080328;28;20187;-84
2021/08/01 11:53:21;;;;;;;1.30;1.20;;;23.70;1.00;;;;;;5095845;28;20660;-87
2021/08/01 11:55:47;;;;;;;1.77;1.37;;;23.70;1.00;;;;;;5080445;28;20192;-85
2021/08/01 11:58:14;;;;;;;1.27;1.10;;;23.90;1.00;;;;;;5100001;28;20239;-84
2021/08/01 12:00:41;;;;;;;1.60;1.37;;;24.10;1.00;;;;;;5083612;28;20295;-84
2021/08/01 12:03:09;;;;;;;1.57;1.47;;;;;;;;;;5082677;28;20245;-84
2021/08/01 12:05:42;;;;;;;2.27;1.23;;;24.50;1.00;;;;;;5081804;28;20191;-84
2021/08/01 12:08:07;;;;;;;3.85;1.33;;;24.60;1.00;;;;;;5099148;28;20202;-85
2021/08/01 12:10:33;;;;;;;1.10;1.10;;;25.10;1.00;;;;;;5101184;28;20196;-84
2021/08/01 12:13:08;;;;;;;1.45;1.35;;;26.00;1.00;;;;;;5106835;28;20238;-84
2021/08/01 12:15:38;;;;;;;1.70;1.15;;;26.60;1.00;;;;;;5081692;28;20192;-84
2021/08/01 12:18:03;;;;;;;2.33;1.55;;;27.70;1.00;;;;;;5084913;28;20220;-84
2021/08/01 12:20:33;;;;;;;1.48;1.20;;;28.50;1.00;;;;;;5086960;28;20193;-83
2021/08/01 12:22:59;;;;;;;1.20;1.10;;;29.10;1.00;;;;;;5083418;28;20184;-85
2021/08/01 12:25:26;;;;;;;1.70;1.08;;;29.40;1.00;;;;;;5084968;28;20180;-84
2021/08/01 12:27:51;;;;;;;2.28;1.13;;;29.10;1.00;;;;;;5085240;28;20188;-84
2021/08/01 12:30:20;;;;;;;1.35;1.20;;;29.10;1.00;;;;;;5084431;28;20193;-84
2021/08/01 12:32:48;;;;;;;1.90;1.60;;;29.60;1.00;;;;;;5079804;28;20219;-85
2021/08/01 12:35:26;;;;;;;1.52;0.88;;;29.90;1.00;;;;;;5080520;28;20193;-84
2021/08/01 12:37:59;;;;;;;1.15;1.10;;;29.80;1.00;;;;;;5084557;28;20226;-84
2021/08/01 12:40:24;;;;;;;1.40;0.68;;;29.80;1.00;;;;;;5081761;28;20189;-84
2021/08/01 12:42:52;;;;;;;1.73;0.80;;;30.90;1.00;;;;;;5084689;28;20181;-84
2021/08/01 12:45:18;;;;;;;0.98;0.93;;;31.20;1.00;;;;;;5083586;28;20185;-84
2021/08/01 12:47:45;;;;;;;2.22;1.33;;;31.70;1.00;;;;;;5077683;28;20185;-85
2021/08/01 12:50:11;;;;;;;2.65;1.10;;;30.00;1.00;;;;;;5098904;28;20259;-84
2021/08/01 12:52:37;;;;;;;2.45;1.42;;;29.90;1.00;;;;;;5102139;28;20279;-84
2021/08/01 12:55:07;;;;;;;1.92;1.42;;;28.20;1.00;;;;;;5082859;28;20221;-84
2021/08/01 12:57:32;;;;;;;1.40;1.30;;;27.40;1.00;;;;;;5081563;28;20207;-84
2021/08/01 13:00:16;;;;;;;1.90;1.52;;;26.80;1.00;;;;;;5081529;28;20197;-84
2021/08/01 13:02:43;;;;;;;1.50;1.35;;;26.50;1.00;;;;;;5077540;28;20686;-84
2021/08/01 13:05:23;;;;;;;1.70;1.10;;;27.00;1.00;;;;;;5086203;28;20204;-84
2021/08/01 13:07:49;;;;;;;3.35;1.15;;;28.00;1.00;;;;;;5086187;28;20561;-86
2021/08/01 13:10:16;;;;;;;1.33;1.20;;;29.40;1.00;;;;;;5083557;28;20216;-83
2021/08/01 13:13:01;;;;;;;1.33;1.08;;;31.20;1.00;;;;;;5094589;28;20213;-86